Observation data for Dora on 05/22/2020      Previous  Date  Next       Current Mesonet Observations  Soil Data  Daily Summary Page  Observations in Plain Language
KDR1 220500Z 29010KT 19/M19 A2986 RMK A01 T01881186  RH  006%=      5-min Rain = 0
KDR1 220505Z 28008KT 19/M19 A2987 RMK A01 T01871186  RH  007%=      5-min Rain = 0
KDR1 220510Z 27007KT 17/M18 A2987 RMK A01 T01701179  RH  008%=      5-min Rain = 0
KDR1 220515Z 27007KT 17/M17 A2987 RMK A01 T01661174  RH  008%=      5-min Rain = 0
KDR1 220520Z 27006KT 16/M17 A2987 RMK A01 T01591174  RH  009%=      5-min Rain = 0
KDR1 220525Z 28008KT 17/M18 A2987 RMK A01 T01681177  RH  008%=      5-min Rain = 0
KDR1 220530Z 29010KT 17/M18 A2987 RMK A01 T01731180  RH  007%=      5-min Rain = 0
KDR1 220535Z 28008KT 18/M18 A2987 RMK A01 T01751183  RH  007%=      5-min Rain = 0
KDR1 220540Z 27007KT 17/M18 A2987 RMK A01 T01671179  RH  008%=      5-min Rain = 0
KDR1 220545Z 27007KT 17/M18 A2987 RMK A01 T01661180  RH  008%=      5-min Rain = 0
KDR1 220550Z 28008KT 17/M18 A2987 RMK A01 T01661182  RH  008%=      5-min Rain = 0
KDR1 220555Z 26008KT 16/M18 A2987 RMK A01 T01621178  RH  008%=      5-min Rain = 0
KDR1 220600Z 26007KT 16/M17 A2987 RMK A01 T01581174  RH  009%=      5-min Rain = 0
KDR1 220605Z 26007KT 16/M17 A2988 RMK A01 T01551171  RH  009%=      5-min Rain = 0
KDR1 220610Z 26007KT 16/M17 A2988 RMK A01 T01571170  RH  009%=      5-min Rain = 0
KDR1 220615Z 25008KT 16/M17 A2988 RMK A01 T01571167  RH  009%=      5-min Rain = 0
KDR1 220620Z 23010KT 15/M16 A2988 RMK A01 T01491164  RH  010%=      5-min Rain = 0
KDR1 220625Z 24010KT 15/M16 A2988 RMK A01 T01461164  RH  010%=      5-min Rain = 0
KDR1 220630Z 24011KT 14/M16 A2989 RMK A01 T01401162  RH  011%=      5-min Rain = 0
KDR1 220635Z 24011KT 14/M16 A2989 RMK A01 T01401160  RH  011%=      5-min Rain = 0
KDR1 220640Z 25010KT 14/M17 A2989 RMK A01 T01401168  RH  010%=      5-min Rain = 0
KDR1 220645Z 25010KT 15/M18 A2989 RMK A01 T01451176  RH  009%=      5-min Rain = 0
KDR1 220650Z 24010KT 15/M18 A2989 RMK A01 T01491176  RH  009%=      5-min Rain = 0
KDR1 220655Z 24008KT 15/M18 A2989 RMK A01 T01501176  RH  009%=      5-min Rain = 0
KDR1 220700Z 24009KT 15/M18 A2988 RMK A01 T01461176  RH  009%=      5-min Rain = 0
KDR1 220705Z 24010KT 15/M18 A2988 RMK A01 T01531176  RH  009%=      5-min Rain = 0
KDR1 220710Z 24010KT 15/M18 A2988 RMK A01 T01481176  RH  009%=      5-min Rain = 0
KDR1 220715Z 24010KT 14/M17 A2988 RMK A01 T01441174  RH  009%=      5-min Rain = 0
KDR1 220720Z 24010KT 15/M17 A2988 RMK A01 T01471172  RH  009%=      5-min Rain = 0
KDR1 220725Z 25009KT 14/M17 A2989 RMK A01 T01401168  RH  010%=      5-min Rain = 0
KDR1 220730Z 25010KT 14/M17 A2988 RMK A01 T01391172  RH  010%=      5-min Rain = 0
KDR1 220735Z 26009KT 14/M17 A2988 RMK A01 T01401169  RH  010%=      5-min Rain = 0
KDR1 220740Z 26009KT 14/M17 A2988 RMK A01 T01391168  RH  010%=      5-min Rain = 0
KDR1 220745Z 27010KT 14/M17 A2988 RMK A01 T01421168  RH  010%=      5-min Rain = 0
KDR1 220750Z 27011KT 15/M17 A2988 RMK A01 T01501171  RH  009%=      5-min Rain = 0
KDR1 220755Z 27010KT 15/M17 A2988 RMK A01 T01481172  RH  009%=      5-min Rain = 0
KDR1 220800Z 27011KT 15/M17 A2988 RMK A01 T01541174  RH  009%=      5-min Rain = 0
KDR1 220805Z 27012KT 15/M17 A2988 RMK A01 T01531171  RH  009%=      5-min Rain = 0
KDR1 220810Z 28013KT 15/M17 A2988 RMK A01 T01531169  RH  009%=      5-min Rain = 0
KDR1 220815Z 28013KT 16/M17 A2988 RMK A01 T01581170  RH  009%=      5-min Rain = 0
KDR1 220820Z 27012KT 15/M17 A2988 RMK A01 T01531168  RH  009%=      5-min Rain = 0
KDR1 220825Z 27011KT 15/M17 A2988 RMK A01 T01491167  RH  010%=      5-min Rain = 0
KDR1 220830Z 27010KT 15/M17 A2988 RMK A01 T01451167  RH  010%=      5-min Rain = 0
KDR1 220835Z 27009KT 14/M17 A2988 RMK A01 T01421166  RH  010%=      5-min Rain = 0
KDR1 220840Z 27009KT 14/M17 A2988 RMK A01 T01401165  RH  011%=      5-min Rain = 0
KDR1 220845Z 28009KT 14/M16 A2988 RMK A01 T01411163  RH  011%=      5-min Rain = 0
KDR1 220850Z 28012KT 15/M17 A2988 RMK A01 T01531165  RH  010%=      5-min Rain = 0
KDR1 220855Z 28012KT 16/M17 A2988 RMK A01 T01591168  RH  009%=      5-min Rain = 0
KDR1 220900Z 28011KT 16/M17 A2988 RMK A01 T01601168  RH  009%=      5-min Rain = 0
KDR1 220905Z 28012G17KT 16/M17 A2988 RMK A01 T01631168  RH  009%=      5-min Rain = 0
KDR1 220910Z 29012KT 17/M17 A2988 RMK A01 T01681170  RH  008%=      5-min Rain = 0
KDR1 220915Z 29012KT 17/M17 A2988 RMK A01 T01691170  RH  008%=      5-min Rain = 0
KDR1 220920Z 29013KT 17/M17 A2988 RMK A01 T01701171  RH  008%=      5-min Rain = 0
KDR1 220925Z 29014KT 18/M17 A2989 RMK A01 T01781174  RH  008%=      5-min Rain = 0
KDR1 220930Z 30014KT 18/M17 A2989 RMK A01 T01801174  RH  007%=      5-min Rain = 0
KDR1 220935Z 30014KT 18/M17 A2989 RMK A01 T01791173  RH  008%=      5-min Rain = 0
KDR1 220940Z 30014KT 17/M17 A2989 RMK A01 T01741172  RH  008%=      5-min Rain = 0
KDR1 220945Z 30014KT 17/M17 A2989 RMK A01 T01711171  RH  008%=      5-min Rain = 0
KDR1 220950Z 30014KT 17/M17 A2989 RMK A01 T01701172  RH  008%=      5-min Rain = 0
KDR1 220955Z 30013KT 17/M17 A299 RMK A01 T01661170  RH  009%=      5-min Rain = 0
KDR1 221000Z 30012KT 16/M17 A299 RMK A01 T01601168  RH  009%=      5-min Rain = 0
KDR1 221005Z 30012KT 16/M17 A299 RMK A01 T01581168  RH  009%=      5-min Rain = 0
KDR1 221010Z 30012KT 16/M17 A299 RMK A01 T01581166  RH  009%=      5-min Rain = 0
KDR1 221015Z 30012KT 16/M16 A299 RMK A01 T01551164  RH  010%=      5-min Rain = 0
KDR1 221020Z 30012KT 15/M16 A299 RMK A01 T01501161  RH  010%=      5-min Rain = 0
KDR1 221025Z 30012KT 15/M16 A299 RMK A01 T01471159  RH  011%=      5-min Rain = 0
KDR1 221030Z 30012KT 15/M16 A299 RMK A01 T01471158  RH  011%=      5-min Rain = 0
KDR1 221035Z 30012KT 15/M16 A299 RMK A01 T01471157  RH  011%=      5-min Rain = 0
KDR1 221040Z 30012KT 15/M16 A2991 RMK A01 T01491158  RH  011%=      5-min Rain = 0
KDR1 221045Z 30012KT 15/M15 A2991 RMK A01 T01511146  RH  011%=      5-min Rain = 0
KDR1 221050Z 30011KT 15/M13 A2991 RMK A01 T01511129  RH  013%=      5-min Rain = 0
KDR1 221055Z 29010KT 15/M12 A2991 RMK A01 T01501117  RH  015%=      5-min Rain = 0
KDR1 221100Z 29010KT 15/M11 A2991 RMK A01 T01491106  RH  016%=      5-min Rain = 0
KDR1 221105Z 29010KT 15/M09 A2991 RMK A01 T01501091  RH  018%=      5-min Rain = 0
KDR1 221110Z 30010KT 15/M09 A2991 RMK A01 T01481094  RH  018%=      5-min Rain = 0
KDR1 221115Z 30010KT 15/M09 A2991 RMK A01 T01451089  RH  019%=      5-min Rain = 0
KDR1 221120Z 30010KT 14/M09 A2991 RMK A01 T01431091  RH  019%=      5-min Rain = 0
KDR1 221125Z 30010KT 14/M09 A2991 RMK A01 T01411090  RH  019%=      5-min Rain = 0
KDR1 221130Z 30010KT 14/M09 A2991 RMK A01 T01381092  RH  019%=      5-min Rain = 0
KDR1 221135Z 31010KT 14/M09 A2992 RMK A01 T01351089  RH  020%=      5-min Rain = 0
KDR1 221140Z 30010KT 13/M08 A2992 RMK A01 T01331084  RH  021%=      5-min Rain = 0
KDR1 221145Z 30011KT 13/M08 A2992 RMK A01 T01331079  RH  022%=      5-min Rain = 0
KDR1 221150Z 30010KT 13/M07 A2992 RMK A01 T01331072  RH  023%=      5-min Rain = 0
KDR1 221155Z 30010KT 13/M07 A2993 RMK A01 T01331068  RH  024%=      5-min Rain = 0
KDR1 221200Z 30010KT 13/M07 A2993 RMK A01 T01321070  RH  024%=      5-min Rain = 0
KDR1 221205Z 30010KT 13/M07 A2993 RMK A01 T01331066  RH  024%=      5-min Rain = 0
KDR1 221210Z 30010KT 13/M06 A2993 RMK A01 T01341061  RH  025%=      5-min Rain = 0
KDR1 221215Z 31008KT 13/M06 A2993 RMK A01 T01341058  RH  026%=      5-min Rain = 0
KDR1 221220Z 31008KT 13/M06 A2994 RMK A01 T01341058  RH  026%=      5-min Rain = 0
KDR1 221225Z 31007KT 13/M06 A2994 RMK A01 T01331062  RH  025%=      5-min Rain = 0
KDR1 221230Z 31007KT 13/M06 A2995 RMK A01 T01341061  RH  025%=      5-min Rain = 0
KDR1 221235Z 31007KT 14/M06 A2995 RMK A01 T01371058  RH  025%=      5-min Rain = 0
KDR1 221240Z 31008KT 14/M06 A2995 RMK A01 T01411055  RH  025%=      5-min Rain = 0
KDR1 221245Z 30008KT 15/M05 A2995 RMK A01 T01461051  RH  025%=      5-min Rain = 0
KDR1 221250Z 30008KT 15/M05 A2995 RMK A01 T01501047  RH  025%=      5-min Rain = 0
KDR1 221255Z 31008KT 16/M04 A2995 RMK A01 T01551042  RH  026%=      5-min Rain = 0
KDR1 221300Z 31009KT 16/M03 A2995 RMK A01 T01601033  RH  026%=      5-min Rain = 0
KDR1 221305Z 32010KT 16/M02 A2996 RMK A01 T01641020  RH  029%=      5-min Rain = 0
KDR1 221310Z 32011KT 17/M01 A2996 RMK A01 T01661007  RH  031%=      5-min Rain = 0
KDR1 221315Z 32010KT 17/00 A2996 RMK A01 T01670000  RH  033%=      5-min Rain = 0
KDR1 221320Z 32012KT 17/01 A2996 RMK A01 T01680010  RH  035%=      5-min Rain = 0
KDR1 221325Z 33011KT 17/01 A2996 RMK A01 T01680012  RH  035%=      5-min Rain = 0
KDR1 221330Z 33011KT 17/02 A2996 RMK A01 T01700017  RH  036%=      5-min Rain = 0
KDR1 221335Z 33011KT 17/02 A2996 RMK A01 T01720024  RH  037%=      5-min Rain = 0
KDR1 221340Z 33011KT 17/03 A2996 RMK A01 T01740030  RH  039%=      5-min Rain = 0
KDR1 221345Z 33011KT 18/03 A2997 RMK A01 T01770032  RH  039%=      5-min Rain = 0
KDR1 221350Z 34012KT 18/03 A2997 RMK A01 T01780034  RH  039%=      5-min Rain = 0
KDR1 221355Z 33010KT 18/04 A2997 RMK A01 T01830037  RH  039%=      5-min Rain = 0
KDR1 221400Z 33011KT 19/04 A2997 RMK A01 T01850040  RH  039%=      5-min Rain = 0
KDR1 221405Z 33011KT 19/04 A2997 RMK A01 T01880040  RH  038%=      5-min Rain = 0
KDR1 221410Z 33012KT 19/04 A2997 RMK A01 T01870043  RH  039%=      5-min Rain = 0
KDR1 221415Z 33011KT 19/05 A2997 RMK A01 T01920045  RH  039%=      5-min Rain = 0
KDR1 221420Z 33011KT 19/05 A2997 RMK A01 T01940047  RH  039%=      5-min Rain = 0
KDR1 221425Z 33011KT 20/05 A2997 RMK A01 T01990049  RH  038%=      5-min Rain = 0
KDR1 221430Z 32011KT 20/05 A2997 RMK A01 T02030050  RH  037%=      5-min Rain = 0
KDR1 221435Z 33012KT 20/05 A2997 RMK A01 T02020050  RH  038%=      5-min Rain = 0
KDR1 221440Z 33011KT 21/05 A2997 RMK A01 T02060050  RH  037%=      5-min Rain = 0
KDR1 221445Z 33011KT 21/05 A2997 RMK A01 T02100050  RH  036%=      5-min Rain = 0
KDR1 221450Z 33012KT 21/05 A2998 RMK A01 T02120048  RH  035%=      5-min Rain = 0
KDR1 221455Z 33010KT 21/05 A2998 RMK A01 T02140046  RH  034%=      5-min Rain = 0
KDR1 221500Z 32011KT 22/05 A2998 RMK A01 T02180045  RH  033%=      5-min Rain = 0
KDR1 221505Z 33011KT 22/05 A2998 RMK A01 T02190045  RH  033%=      5-min Rain = 0
KDR1 221510Z 34011KT 22/05 A2998 RMK A01 T02240048  RH  032%=      5-min Rain = 0
KDR1 221515Z 33011G16KT 22/05 A2998 RMK A01 T02230048  RH  033%=      5-min Rain = 0
KDR1 221520Z 33011KT 22/05 A2998 RMK A01 T02230049  RH  033%=      5-min Rain = 0
KDR1 221525Z 34011KT 22/05 A2998 RMK A01 T02240051  RH  033%=      5-min Rain = 0
KDR1 221530Z 34011KT 23/05 A2998 RMK A01 T02280049  RH  032%=      5-min Rain = 0
KDR1 221535Z 33011KT 23/05 A2998 RMK A01 T02270048  RH  032%=      5-min Rain = 0
KDR1 221540Z 33010KT 23/05 A2998 RMK A01 T02330048  RH  031%=      5-min Rain = 0
KDR1 221545Z 33010KT 23/05 A2998 RMK A01 T02320046  RH  031%=      5-min Rain = 0
KDR1 221550Z 34009KT 24/05 A2998 RMK A01 T02370047  RH  030%=      5-min Rain = 0
KDR1 221555Z 33008KT 24/05 A2998 RMK A01 T02390047  RH  030%=      5-min Rain = 0
KDR1 221600Z 34010KT 25/05 A2998 RMK A01 T02460049  RH  029%=      5-min Rain = 0
KDR1 221605Z 35008G13KT 25/05 A2998 RMK A01 T02470050  RH  029%=      5-min Rain = 0
KDR1 221610Z 35009KT 25/05 A2998 RMK A01 T02480047  RH  028%=      5-min Rain = 0
KDR1 221615Z 34008KT 25/05 A2998 RMK A01 T02480046  RH  028%=      5-min Rain = 0
KDR1 221620Z 36007KT 26/05 A2998 RMK A01 T02570050  RH  027%=      5-min Rain = 0
KDR1 221625Z 35008KT 26/04 A2998 RMK A01 T02610040  RH  024%=      5-min Rain = 0
KDR1 221630Z 35007G12KT 26/04 A2998 RMK A01 T02600036  RH  024%=      5-min Rain = 0
KDR1 221635Z 31008KT 26/03 A2998 RMK A01 T02560025  RH  023%=      5-min Rain = 0
KDR1 221640Z 33008KT 26/03 A2998 RMK A01 T02590028  RH  023%=      5-min Rain = 0
KDR1 221645Z 33006G11KT 26/01 A2998 RMK A01 T02610012  RH  020%=      5-min Rain = 0
KDR1 221650Z 35005G11KT 27/04 A2998 RMK A01 T02650037  RH  024%=      5-min Rain = 0
KDR1 221655Z 01007KT 27/03 A2998 RMK A01 T02670031  RH  022%=      5-min Rain = 0
KDR1 221700Z 01005KT 26/03 A2998 RMK A01 T02640026  RH  022%=      5-min Rain = 0
KDR1 221705Z 03006KT 26/03 A2998 RMK A01 T02630026  RH  022%=      5-min Rain = 0
KDR1 221710Z 03004KT 26/03 A2998 RMK A01 T02640025  RH  022%=      5-min Rain = 0
KDR1 221715Z 03003KT 27/02 A2998 RMK A01 T02650015  RH  020%=      5-min Rain = 0
KDR1 221720Z 01003KT 27/00 A2998 RMK A01 T02700004  RH  018%=      5-min Rain = 0
KDR1 221725Z 31004KT 27/01 A2998 RMK A01 T02730006  RH  018%=      5-min Rain = 0
KDR1 221730Z 00006KT 27/M00 A2998 RMK A01 T02701001  RH  017%=      5-min Rain = 0
KDR1 221735Z 28004KT 28/M00 A2998 RMK A01 T02751003  RH  016%=      5-min Rain = 0
KDR1 221740Z 35003KT 28/M00 A2998 RMK A01 T02781002  RH  016%=      5-min Rain = 0
KDR1 221745Z 11002KT 28/M00 A2998 RMK A01 T02791003  RH  016%=      5-min Rain = 0
KDR1 221750Z 11003KT 28/M01 A2998 RMK A01 T02791007  RH  016%=      5-min Rain = 0
KDR1 221755Z 05004KT 28/M01 A2997 RMK A01 T02761007  RH  016%=      5-min Rain = 0
KDR1 221800Z 02004G9KT 28/M00 A2997 RMK A01 T02841003  RH  016%=      5-min Rain = 0
KDR1 221805Z 04004KT 29/M02 A2997 RMK A01 T02851020  RH  014%=      5-min Rain = 0
KDR1 221810Z 30006KT 29/M03 A2997 RMK A01 T02881034  RH  012%=      5-min Rain = 0
KDR1 221815Z 29005KT 28/M04 A2997 RMK A01 T02831040  RH  012%=      5-min Rain = 0
KDR1 221820Z 30004KT 28/M04 A2997 RMK A01 T02821040  RH  012%=      5-min Rain = 0
KDR1 221825Z 17004KT 29/M05 A2997 RMK A01 T02871046  RH  011%=      5-min Rain = 0
KDR1 221830Z 26003KT 29/M04 A2997 RMK A01 T02931042  RH  011%=      5-min Rain = 0
KDR1 221835Z 32006G11KT 30/M04 A2996 RMK A01 T02971041  RH  011%=      5-min Rain = 0
KDR1 221840Z 30007G15KT 30/M04 A2996 RMK A01 T03001043  RH  011%=      5-min Rain = 0
KDR1 221845Z 24008G13KT 30/M06 A2996 RMK A01 T02971055  RH  010%=      5-min Rain = 0
KDR1 221850Z 20008KT 30/M06 A2996 RMK A01 T02981061  RH  009%=      5-min Rain = 0
KDR1 221855Z 16008KT 29/M06 A2996 RMK A01 T02931059  RH  010%=      5-min Rain = 0
KDR1 221900Z 15007KT 30/M06 A2995 RMK A01 T02981062  RH  009%=      5-min Rain = 0
KDR1 221905Z 14005G10KT 29/M07 A2995 RMK A01 T02921066  RH  009%=      5-min Rain = 0
KDR1 221910Z 27004G12KT 29/M07 A2995 RMK A01 T02941074  RH  009%=      5-min Rain = 0
KDR1 221915Z 29012KT 31/M09 A2995 RMK A01 T03051093  RH  007%=      5-min Rain = 0
KDR1 221920Z 29007G13KT 30/M09 A2994 RMK A01 T03011093  RH  007%=      5-min Rain = 0
KDR1 221925Z 25011G18KT 31/M09 A2994 RMK A01 T03071094  RH  007%=      5-min Rain = 0
KDR1 221930Z 23012G18KT 31/M10 A2994 RMK A01 T03121102  RH  006%=      5-min Rain = 0
KDR1 221935Z 24011G17KT 31/M10 A2994 RMK A01 T03071103  RH  006%=      5-min Rain = 0
KDR1 221940Z 28004G10KT 30/M10 A2994 RMK A01 T03021104  RH  006%=      5-min Rain = 0
KDR1 221945Z 25008G18KT 31/M10 A2993 RMK A01 T03051104  RH  006%=      5-min Rain = 0
KDR1 221950Z 25004G9KT 30/M11 A2993 RMK A01 T03031106  RH  006%=      5-min Rain = 0
KDR1 221955Z 19002G7KT 30/M11 A2993 RMK A01 T03041107  RH  006%=      5-min Rain = 0
KDR1 222000Z 25005G12KT 32/M11 A2993 RMK A01 T03171110  RH  006%=      5-min Rain = 0
KDR1 222005Z 21006KT 31/M12 A2993 RMK A01 T03121121  RH  005%=      5-min Rain = 0
KDR1 222010Z 23010G18KT 31/M13 A2993 RMK A01 T03131134  RH  005%=      5-min Rain = 0
KDR1 222015Z 24013G19KT 32/M15 A2993 RMK A01 T03151147  RH  004%=      5-min Rain = 0
KDR1 222020Z 21005G10KT 31/M15 A2993 RMK A01 T03141146  RH  004%=      5-min Rain = 0
KDR1 222025Z 17002KT 31/M15 A2993 RMK A01 T03071149  RH  004%=      5-min Rain = 0
KDR1 222030Z 17009G16KT 31/M15 A2992 RMK A01 T03131148  RH  004%=      5-min Rain = 0
KDR1 222035Z 16012G20KT 31/M15 A2992 RMK A01 T03141151  RH  004%=      5-min Rain = 0
KDR1 222040Z 18009G16KT 32/M15 A2992 RMK A01 T03181153  RH  004%=      5-min Rain = 0
KDR1 222045Z 20007G12KT 32/M15 A2992 RMK A01 T03171152  RH  004%=      5-min Rain = 0
KDR1 222050Z 25009G16KT 31/M17 A2992 RMK A01 T03141167  RH  004%=      5-min Rain = 0
KDR1 222055Z 25009KT 31/M17 A2992 RMK A01 T03131167  RH  004%=      5-min Rain = 0
KDR1 222100Z 23009G15KT 31/M17 A2991 RMK A01 T03131166  RH  004%=      5-min Rain = 0
KDR1 222105Z 25008G14KT 32/M17 A2991 RMK A01 T03151168  RH  004%=      5-min Rain = 0
KDR1 222110Z 23010G17KT 32/M16 A2991 RMK A01 T03191161  RH  004%=      5-min Rain = 0
KDR1 222115Z 24010G16KT 32/M16 A2991 RMK A01 T03191164  RH  004%=      5-min Rain = 0
KDR1 222120Z 23012G21KT 32/M16 A2991 RMK A01 T03221162  RH  004%=      5-min Rain = 0
KDR1 222125Z 22014G19KT 32/M16 A299 RMK A01 T03211164  RH  004%=      5-min Rain = 0
KDR1 222130Z 21010G15KT 32/M16 A299 RMK A01 T03191163  RH  004%=      5-min Rain = 0
KDR1 222135Z 23008G14KT 31/M16 A299 RMK A01 T03131160  RH  004%=      5-min Rain = 0
KDR1 222140Z 22009G15KT 32/M16 A299 RMK A01 T03151160  RH  004%=      5-min Rain = 0
KDR1 222145Z 19012G21KT 32/M16 A2989 RMK A01 T03201161  RH  004%=      5-min Rain = 0
KDR1 222150Z 21013G21KT 32/M17 A2989 RMK A01 T03241166  RH  003%=      5-min Rain = 0
KDR1 222155Z 20010G18KT 32/M17 A2989 RMK A01 T03201169  RH  003%=      5-min Rain = 0
KDR1 222200Z 23006G12KT 31/M18 A2989 RMK A01 T03141175  RH  003%=      5-min Rain = 0
KDR1 222205Z 18013G18KT 32/M16 A2989 RMK A01 T03221161  RH  004%=      5-min Rain = 0
KDR1 222210Z 17009G14KT 32/M16 A2989 RMK A01 T03181161  RH  004%=      5-min Rain = 0
KDR1 222215Z 20008G20KT 32/M16 A2988 RMK A01 T03181162  RH  004%=      5-min Rain = 0
KDR1 222220Z 23013G19KT 32/M17 A2988 RMK A01 T03201173  RH  003%=      5-min Rain = 0
KDR1 222225Z 23014G19KT 32/M17 A2988 RMK A01 T03221174  RH  003%=      5-min Rain = 0
KDR1 222230Z 21014G23KT 32/M17 A2988 RMK A01 T03201174  RH  003%=      5-min Rain = 0
KDR1 222235Z 21007G13KT 32/M17 A2988 RMK A01 T03151174  RH  003%=      5-min Rain = 0
KDR1 222240Z 21008KT 32/M17 A2988 RMK A01 T03181173  RH  003%=      5-min Rain = 0
KDR1 222245Z 21011G17KT 32/M18 A2988 RMK A01 T03191181  RH  003%=      5-min Rain = 0
KDR1 222250Z 21014G19KT 32/M19 A2987 RMK A01 T03221192  RH  003%=      5-min Rain = 0
KDR1 222255Z 24013KT 32/M20 A2987 RMK A01 T03171195  RH  003%=      5-min Rain = 0
KDR1 222300Z 22013G23KT 32/M19 A2987 RMK A01 T03181194  RH  003%=      5-min Rain = 0
KDR1 222305Z 18012G18KT 32/M20 A2987 RMK A01 T03171196  RH  003%=      5-min Rain = 0
KDR1 222310Z 21011G17KT 32/M19 A2987 RMK A01 T03171193  RH  003%=      5-min Rain = 0
KDR1 222315Z 23013G19KT 32/M20 A2987 RMK A01 T03151197  RH  003%=      5-min Rain = 0
KDR1 222320Z 22011G17KT 32/M19 A2987 RMK A01 T03151191  RH  003%=      5-min Rain = 0
KDR1 222325Z 24014G19KT 32/M19 A2986 RMK A01 T03161185  RH  003%=      5-min Rain = 0
KDR1 222330Z 23012G17KT 31/M18 A2986 RMK A01 T03131184  RH  003%=      5-min Rain = 0
KDR1 222335Z 24015KT 31/M19 A2986 RMK A01 T03121191  RH  003%=      5-min Rain = 0
KDR1 222340Z 24015G20KT 31/M19 A2986 RMK A01 T03111192  RH  003%=      5-min Rain = 0
KDR1 222345Z 21014G20KT 31/M19 A2986 RMK A01 T03111186  RH  003%=      5-min Rain = 0
KDR1 222350Z 24015KT 31/M19 A2986 RMK A01 T03101185  RH  003%=      5-min Rain = 0
KDR1 222355Z 23014G20KT 31/M19 A2985 RMK A01 T03101185  RH  003%=      5-min Rain = 0
KDR1 230000Z 23012G17KT 31/M19 A2985 RMK A01 T03101187  RH  003%=      5-min Rain = 0
KDR1 230005Z 22013G19KT 31/M20 A2985 RMK A01 T03071199  RH  003%=      5-min Rain = 0
KDR1 230010Z 21012G19KT 31/M20 A2985 RMK A01 T03071196  RH  003%=      5-min Rain = 0
KDR1 230015Z 22011KT 31/M20 A2985 RMK A01 T03071202  RH  003%=      5-min Rain = 0
KDR1 230020Z 23011G16KT 31/M20 A2985 RMK A01 T03061200  RH  003%=      5-min Rain = 0
KDR1 230025Z 22010G16KT 31/M20 A2985 RMK A01 T03061196  RH  003%=      5-min Rain = 0
KDR1 230030Z 23012G17KT 30/M20 A2985 RMK A01 T03021195  RH  003%=      5-min Rain = 0
KDR1 230035Z 22012KT 30/M19 A2985 RMK A01 T03031185  RH  003%=      5-min Rain = 0
KDR1 230040Z 22010KT 30/M19 A2986 RMK A01 T03011187  RH  003%=      5-min Rain = 0
KDR1 230045Z 22011G17KT 30/M19 A2986 RMK A01 T02991187  RH  003%=      5-min Rain = 0
KDR1 230050Z 22012KT 30/M19 A2986 RMK A01 T02981193  RH  003%=      5-min Rain = 0
KDR1 230055Z 22010KT 30/M18 A2986 RMK A01 T02961184  RH  003%=      5-min Rain = 0
KDR1 230100Z 21010KT 30/M18 A2986 RMK A01 T02951175  RH  004%=      5-min Rain = 0
KDR1 230105Z 21008KT 29/M17 A2986 RMK A01 T02941171  RH  004%=      5-min Rain = 0
KDR1 230110Z 21009KT 29/M17 A2986 RMK A01 T02911171  RH  004%=      5-min Rain = 0
KDR1 230115Z 22008KT 29/M17 A2986 RMK A01 T02881169  RH  004%=      5-min Rain = 0
KDR1 230120Z 21007KT 29/M17 A2986 RMK A01 T02851169  RH  004%=      5-min Rain = 0
KDR1 230125Z 20008KT 28/M17 A2986 RMK A01 T02831170  RH  004%=      5-min Rain = 0
KDR1 230130Z 20009KT 28/M17 A2986 RMK A01 T02791170  RH  004%=      5-min Rain = 0
KDR1 230135Z 21009KT 27/M17 A2986 RMK A01 T02741167  RH  005%=      5-min Rain = 0
KDR1 230140Z 20008KT 27/M16 A2986 RMK A01 T02661163  RH  005%=      5-min Rain = 0
KDR1 230145Z 20009KT 26/M16 A2986 RMK A01 T02601160  RH  005%=      5-min Rain = 0
KDR1 230150Z 19009KT 25/M15 A2986 RMK A01 T02511154  RH  006%=      5-min Rain = 0
KDR1 230155Z 19010KT 24/M15 A2986 RMK A01 T02391149  RH  006%=      5-min Rain = 0
KDR1 230200Z 20011KT 24/M15 A2986 RMK A01 T02421147  RH  006%=      5-min Rain = 0
KDR1 230205Z 19010KT 24/M14 A2986 RMK A01 T02381144  RH  007%=      5-min Rain = 0
KDR1 230210Z 19010KT 23/M14 A2986 RMK A01 T02271143  RH  007%=      5-min Rain = 0
KDR1 230215Z 18010KT 23/M15 A2986 RMK A01 T02251145  RH  007%=      5-min Rain = 0
KDR1 230220Z 18009KT 23/M15 A2986 RMK A01 T02291145  RH  007%=      5-min Rain = 0
KDR1 230225Z 18009KT 22/M14 A2986 RMK A01 T02211137  RH  008%=      5-min Rain = 0
KDR1 230230Z 18009KT 22/M14 A2986 RMK A01 T02231135  RH  008%=      5-min Rain = 0
KDR1 230235Z 18009KT 22/M14 A2986 RMK A01 T02181136  RH  008%=      5-min Rain = 0
KDR1 230240Z 19010KT 22/M14 A2986 RMK A01 T02151136  RH  008%=      5-min Rain = 0
KDR1 230245Z 18010KT 21/M14 A2986 RMK A01 T02141137  RH  008%=      5-min Rain = 0
KDR1 230250Z 18010KT 22/M14 A2986 RMK A01 T02151139  RH  008%=      5-min Rain = 0
KDR1 230255Z 18011KT 21/M13 A2986 RMK A01 T02121134  RH  009%=      5-min Rain = 0
KDR1 230300Z 18011KT 22/M14 A2986 RMK A01 T02171136  RH  008%=      5-min Rain = 0
KDR1 230305Z 17011KT 22/M14 A2986 RMK A01 T02151136  RH  008%=      5-min Rain = 0
KDR1 230310Z 17011KT 21/M14 A2986 RMK A01 T02131138  RH  008%=      5-min Rain = 0
KDR1 230315Z 17012KT 22/M14 A2986 RMK A01 T02181139  RH  008%=      5-min Rain = 0
KDR1 230320Z 17012KT 22/M14 A2987 RMK A01 T02201141  RH  008%=      5-min Rain = 0
KDR1 230325Z 17011KT 21/M14 A2987 RMK A01 T02081136  RH  009%=      5-min Rain = 0
KDR1 230330Z 17011KT 20/M13 A2987 RMK A01 T02001133  RH  009%=      5-min Rain = 0
KDR1 230335Z 17011KT 20/M14 A2987 RMK A01 T02041136  RH  009%=      5-min Rain = 0
KDR1 230340Z 18012KT 21/M14 A2987 RMK A01 T02061136  RH  009%=      5-min Rain = 0
KDR1 230345Z 18012KT 21/M14 A2987 RMK A01 T02061138  RH  009%=      5-min Rain = 0
KDR1 230350Z 18012KT 21/M14 A2987 RMK A01 T02071139  RH  009%=      5-min Rain = 0
KDR1 230355Z 18013KT 21/M14 A2987 RMK A01 T02091140  RH  008%=      5-min Rain = 0
KDR1 230400Z 18013KT 21/M14 A2987 RMK A01 T02081139  RH  008%=      5-min Rain = 0
KDR1 230405Z 18012KT 20/M14 A2988 RMK A01 T02021135  RH  009%=      5-min Rain = 0
KDR1 230410Z 19012KT 20/M14 A2988 RMK A01 T01971135  RH  009%=      5-min Rain = 0
KDR1 230415Z 19013KT 20/M13 A2988 RMK A01 T01951131  RH  010%=      5-min Rain = 0
KDR1 230420Z 19013KT 19/M13 A2988 RMK A01 T01931130  RH  010%=      5-min Rain = 0
KDR1 230425Z 20012KT 19/M13 A2988 RMK A01 T01911131  RH  010%=      5-min Rain = 0
KDR1 230430Z 20012KT 19/M13 A2988 RMK A01 T01911129  RH  010%=      5-min Rain = 0
KDR1 230435Z 20013KT 19/M13 A2988 RMK A01 T01921127  RH  010%=      5-min Rain = 0
KDR1 230440Z 20013KT 19/M13 A2988 RMK A01 T01931129  RH  010%=      5-min Rain = 0
KDR1 230445Z 20013KT 19/M13 A2988 RMK A01 T01931130  RH  010%=      5-min Rain = 0
KDR1 230450Z 20012KT 19/M13 A2988 RMK A01 T01891129  RH  010%=      5-min Rain = 0
KDR1 230455Z 20013KT 19/M13 A2988 RMK A01 T01891129  RH  010%=      5-min Rain = 0

Page generated in 0.0092 seconds.